Terminal Aerodrome Forecast
Issued by NWS

Current Version | Previous Version | Graphics & Text | Print | Product List | Glossary On
Versions: 1 2 3 4 5 6 7 8 9 10 11 12 13 14 15 16 17
000
FTUS41 KILN 270548
TAFLCK
TAF
KLCK 270548Z 2706/2806 15008KT P6SM SCT250
     FM270800 16008KT P6SM BKN250 WS020/19035KT
     FM271200 17012KT P6SM BKN250
     FM271400 20015G25KT P6SM VCSH BKN050
     FM272100 24015G22KT P6SM BKN050
     FM280100 26010KT P6SM SCT050
     FM280400 25006KT P6SM SCT150=

USA.gov is the U.S. government's official web portal to all federal, state and local government web resources and services.